Time;durP1;ratioP1;P1;durP2;ratioP2;P2;SDS_P1;SDS_P2;PMS_P1;PMS_P2;Temp;Humidity;BMP_temperature;BMP_pressure;BME280_temperature;BME280_humidity;BME280_pressure;Samples;Min_cycle;Max_cycle;Signal;HPM_P1;HPM_P2
2021/12/29 00:00:54;;;;;;;38.00;21.20;;;3.90;99.90;;;;;;5076850;28;20497;-69
2021/12/29 00:03:20;;;;;;;42.40;22.40;;;3.90;99.90;;;;;;5076725;28;20960;-69
2021/12/29 00:05:47;;;;;;;35.77;21.70;;;3.90;99.90;;;;;;5076435;28;20461;-68
2021/12/29 00:08:14;;;;;;;37.50;21.37;;;3.90;99.90;;;;;;5076546;28;20482;-68
2021/12/29 00:10:42;;;;;;;40.87;21.33;;;3.90;99.90;;;;;;5076596;28;20515;-70
2021/12/29 00:13:11;;;;;;;36.37;23.10;;;3.90;99.90;;;;;;5076366;28;20466;-70
2021/12/29 00:15:38;;;;;;;37.00;22.30;;;3.90;99.90;;;;;;5077837;28;20539;-68
2021/12/29 00:18:05;;;;;;;35.10;22.03;;;4.00;99.90;;;;;;5080258;28;20945;-69
2021/12/29 00:20:32;;;;;;;38.97;21.23;;;4.00;99.90;;;;;;5076346;28;20468;-68
2021/12/29 00:23:01;;;;;;;38.17;23.67;;;4.00;99.90;;;;;;5076301;28;20469;-69
2021/12/29 00:25:28;;;;;;;40.77;23.00;;;4.00;99.90;;;;;;5074806;28;20926;-68
2021/12/29 00:27:59;;;;;;;36.37;21.27;;;3.90;99.90;;;;;;5075819;28;20551;-68
2021/12/29 00:30:26;;;;;;;39.00;22.93;;;3.90;99.90;;;;;;5076755;28;20443;-69
2021/12/29 00:32:53;;;;;;;35.67;21.10;;;3.90;99.90;;;;;;5076764;28;20554;-69
2021/12/29 00:35:20;;;;;;;40.13;21.70;;;3.80;99.90;;;;;;5076681;28;20952;-69
2021/12/29 00:37:49;;;;;;;38.87;24.60;;;3.80;99.90;;;;;;5077142;28;20531;-74
2021/12/29 00:40:16;;;;;;;37.30;21.50;;;3.80;99.90;;;;;;5076558;28;20454;-68
2021/12/29 00:42:43;;;;;;;38.13;23.17;;;3.80;99.90;;;;;;5076137;28;20458;-68
2021/12/29 00:45:14;;;;;;;36.23;20.03;;;3.80;99.90;;;;;;5076175;28;20461;-68
2021/12/29 00:47:41;;;;;;;39.20;22.13;;;3.80;99.90;;;;;;5076163;28;20507;-69
2021/12/29 00:50:13;;;;;;;41.80;22.93;;;3.90;99.90;;;;;;5075864;28;20958;-69
2021/12/29 00:52:40;;;;;;;37.70;22.60;;;3.90;99.90;;;;;;5075496;28;20471;-69
2021/12/29 00:55:08;;;;;;;34.80;21.73;;;3.90;99.90;;;;;;5075875;28;20462;-69
2021/12/29 00:57:36;;;;;;;34.67;22.03;;;3.90;99.90;;;;;;5075822;28;20478;-69
2021/12/29 01:00:05;;;;;;;41.47;22.40;;;3.90;99.90;;;;;;5075331;28;20480;-69
2021/12/29 01:02:33;;;;;;;36.93;22.77;;;3.90;99.90;;;;;;5075778;28;20466;-69
2021/12/29 01:05:03;;;;;;;40.80;23.77;;;4.00;99.90;;;;;;5075635;28;20964;-69
2021/12/29 01:07:29;;;;;;;41.37;23.90;;;4.00;99.90;;;;;;5075218;28;20828;-69
2021/12/29 01:09:56;;;;;;;38.77;22.03;;;4.00;99.90;;;;;;5076078;28;20523;-69
2021/12/29 01:12:23;;;;;;;34.83;22.03;;;4.00;99.90;;;;;;5076024;28;20454;-69
2021/12/29 01:14:54;;;;;;;36.30;21.60;;;4.10;99.90;;;;;;5075857;28;20458;-69
2021/12/29 01:17:21;;;;;;;40.97;21.60;;;4.00;99.90;;;;;;5076056;28;20477;-69
2021/12/29 01:19:51;;;;;;;33.63;21.47;;;4.10;99.90;;;;;;5076701;28;20879;-69
2021/12/29 01:22:17;;;;;;;36.27;21.27;;;4.00;99.90;;;;;;5076006;28;20524;-69
2021/12/29 01:24:46;;;;;;;40.50;23.90;;;4.10;99.90;;;;;;5075508;28;20539;-69
2021/12/29 01:27:13;;;;;;;37.30;23.00;;;4.10;99.90;;;;;;5074610;28;20972;-69
2021/12/29 01:29:40;;;;;;;34.40;19.80;;;4.00;99.90;;;;;;5075310;28;20792;-69
2021/12/29 01:32:07;;;;;;;39.73;22.17;;;4.00;99.90;;;;;;5075131;28;20527;-69
2021/12/29 01:34:35;;;;;;;37.83;21.07;;;4.00;99.90;;;;;;5075478;28;20449;-69
2021/12/29 01:37:06;;;;;;;34.20;19.40;;;4.00;99.90;;;;;;5074930;28;20482;-69
2021/12/29 01:39:33;;;;;;;33.27;21.53;;;4.00;99.90;;;;;;5075101;28;20519;-69
2021/12/29 01:42:00;;;;;;;40.73;22.57;;;4.10;99.90;;;;;;5074970;28;20458;-69
2021/12/29 01:44:28;;;;;;;34.27;21.97;;;4.10;99.90;;;;;;5075114;28;20469;-69
2021/12/29 01:46:56;;;;;;;39.57;21.40;;;4.20;99.90;;;;;;5075138;28;20515;-69
2021/12/29 01:49:23;;;;;;;37.27;20.50;;;4.10;99.90;;;;;;5075051;28;20608;-69
2021/12/29 01:51:59;;;;;;;37.17;21.77;;;4.10;99.90;;;;;;5075050;28;20494;-69
2021/12/29 01:54:34;;;;;;;39.63;22.77;;;4.00;99.90;;;;;;5075767;28;20442;-69
2021/12/29 01:57:01;;;;;;;39.80;23.53;;;4.00;99.90;;;;;;5075396;28;20461;-69
2021/12/29 01:59:31;;;;;;;39.27;23.53;;;3.90;99.90;;;;;;5075816;28;20454;-69
2021/12/29 02:01:58;;;;;;;36.03;22.53;;;3.90;99.90;;;;;;5075142;28;20469;-69
2021/12/29 02:04:25;;;;;;;44.73;23.30;;;3.90;99.90;;;;;;5074196;28;20462;-69
2021/12/29 02:06:52;;;;;;;38.93;22.60;;;3.90;99.90;;;;;;5075504;28;20757;-69
2021/12/29 02:09:19;;;;;;;38.90;21.40;;;3.80;99.90;;;;;;5075253;28;20463;-69
2021/12/29 02:11:47;;;;;;;48.40;23.70;;;3.70;99.90;;;;;;5074990;28;20781;-69
2021/12/29 02:14:14;;;;;;;37.73;22.00;;;3.80;99.90;;;;;;5074618;28;20461;-69
2021/12/29 02:16:41;;;;;;;37.80;21.77;;;3.80;99.90;;;;;;5074825;28;20517;-69
2021/12/29 02:19:10;;;;;;;41.63;23.17;;;3.80;99.90;;;;;;5074379;28;20465;-69
2021/12/29 02:21:39;;;;;;;39.60;22.20;;;3.80;99.90;;;;;;5074638;28;20457;-69
2021/12/29 02:24:21;;;;;;;36.03;21.03;;;3.80;99.90;;;;;;5074871;28;20808;-69
2021/12/29 02:26:48;;;;;;;38.20;22.10;;;3.90;99.90;;;;;;5074432;28;20481;-69
2021/12/29 02:29:20;;;;;;;36.57;20.93;;;3.90;99.90;;;;;;5074540;28;20454;-70
2021/12/29 02:31:47;;;;;;;34.17;20.80;;;3.90;99.90;;;;;;5074235;28;20449;-68
2021/12/29 02:34:16;;;;;;;33.67;21.47;;;4.00;99.90;;;;;;5074564;28;20523;-68
2021/12/29 02:36:45;;;;;;;35.07;21.97;;;4.00;99.90;;;;;;5073988;28;21007;-68
2021/12/29 02:39:14;;;;;;;35.67;22.10;;;4.10;99.90;;;;;;5074222;28;20960;-69
2021/12/29 02:41:45;;;;;;;33.63;20.57;;;4.10;99.90;;;;;;5074362;28;20454;-69
2021/12/29 02:44:17;;;;;;;33.73;19.83;;;4.20;99.90;;;;;;5074367;28;20442;-69
2021/12/29 02:46:46;;;;;;;32.27;20.90;;;4.20;99.90;;;;;;5074670;28;20927;-69
2021/12/29 02:49:12;;;;;;;31.33;21.13;;;4.30;99.90;;;;;;5074537;28;20458;-69
2021/12/29 02:51:39;;;;;;;34.40;21.33;;;4.30;99.90;;;;;;5074434;28;20552;-69
2021/12/29 02:54:08;;;;;;;26.57;19.03;;;4.40;99.90;;;;;;5073867;28;20489;-69
2021/12/29 02:56:35;;;;;;;27.20;18.20;;;4.50;99.90;;;;;;5074315;28;20484;-69
2021/12/29 02:59:02;;;;;;;29.23;18.30;;;4.60;99.90;;;;;;5074540;28;20837;-69
2021/12/29 03:01:29;;;;;;;34.57;20.87;;;4.60;99.90;;;;;;5074321;28;20453;-69
2021/12/29 03:03:57;;;;;;;25.50;17.03;;;4.70;99.90;;;;;;5074874;28;20461;-69
2021/12/29 03:06:24;;;;;;;27.00;17.23;;;4.70;99.90;;;;;;5074260;28;20461;-69
2021/12/29 03:08:52;;;;;;;28.17;19.07;;;4.80;99.90;;;;;;5074304;28;20458;-69
2021/12/29 03:11:22;;;;;;;26.20;17.50;;;4.80;99.90;;;;;;5074195;28;20462;-69
2021/12/29 03:13:49;;;;;;;26.90;17.27;;;4.90;99.90;;;;;;5074574;28;20439;-69
2021/12/29 03:16:16;;;;;;;27.50;17.23;;;4.90;99.90;;;;;;5075969;28;20821;-69
2021/12/29 03:18:43;;;;;;;24.27;17.43;;;4.90;99.90;;;;;;5077417;28;20454;-69
2021/12/29 03:21:15;;;;;;;27.20;16.47;;;5.00;99.90;;;;;;5077714;28;20473;-69
2021/12/29 03:23:41;;;;;;;23.40;15.97;;;5.00;99.90;;;;;;5077738;28;20782;-69
2021/12/29 03:26:08;;;;;;;21.30;15.93;;;5.00;99.90;;;;;;5077749;28;20486;-69
2021/12/29 03:28:38;;;;;;;25.60;16.17;;;5.10;99.90;;;;;;5077814;28;20453;-67
2021/12/29 03:31:05;;;;;;;23.20;16.17;;;5.20;99.90;;;;;;5077513;28;20543;-68
2021/12/29 03:33:33;;;;;;;25.37;14.43;;;5.10;99.90;;;;;;5078104;28;20458;-68
2021/12/29 03:36:02;;;;;;;22.03;15.00;;;5.10;99.90;;;;;;5077958;28;20958;-68
2021/12/29 03:38:30;;;;;;;20.77;14.87;;;5.20;99.90;;;;;;5077534;28;20974;-68
2021/12/29 03:40:59;;;;;;;21.67;15.37;;;5.20;99.90;;;;;;5077456;28;20518;-69
2021/12/29 03:43:26;;;;;;;19.10;15.07;;;5.20;99.90;;;;;;5079409;28;20462;-69
2021/12/29 03:45:55;;;;;;;22.47;15.00;;;5.20;99.90;;;;;;5078863;28;20462;-69
2021/12/29 03:48:24;;;;;;;25.87;14.87;;;5.20;99.90;;;;;;5077266;28;20910;-68
2021/12/29 03:50:51;;;;;;;21.80;13.87;;;5.30;99.90;;;;;;5077084;28;20469;-69
2021/12/29 03:53:18;;;;;;;23.23;13.63;;;5.30;99.90;;;;;;5076875;28;20465;-68
2021/12/29 03:55:48;;;;;;;17.97;13.40;;;5.40;99.90;;;;;;5076947;28;20454;-69
2021/12/29 03:58:15;;;;;;;18.93;13.10;;;5.50;99.90;;;;;;5076791;28;20565;-69
2021/12/29 04:00:42;;;;;;;24.67;13.10;;;5.50;99.90;;;;;;5076922;28;20455;-69
2021/12/29 04:03:10;;;;;;;18.20;12.70;;;5.50;99.90;;;;;;5076691;28;20459;-69
2021/12/29 04:05:37;;;;;;;17.87;12.13;;;5.60;99.90;;;;;;5077017;28;20909;-69
2021/12/29 04:08:04;;;;;;;25.00;13.73;;;5.60;99.90;;;;;;5076881;28;20450;-69
2021/12/29 04:10:33;;;;;;;18.17;12.43;;;5.60;99.90;;;;;;5076721;28;20531;-69
2021/12/29 04:13:00;;;;;;;19.07;13.50;;;5.70;99.90;;;;;;5076448;28;20459;-69
2021/12/29 04:15:29;;;;;;;25.70;13.50;;;5.70;99.90;;;;;;5076906;28;20451;-69
2021/12/29 04:17:58;;;;;;;18.70;11.07;;;5.80;99.90;;;;;;5076268;28;20478;-69
2021/12/29 04:23:14;;;;;;;16.60;11.10;;;5.80;99.90;;;;;;5076245;28;20430;-69
2021/12/29 04:25:45;;;;;;;22.17;13.00;;;5.80;99.90;;;;;;5076271;28;20465;-69
2021/12/29 04:28:19;;;;;;;15.33;10.27;;;5.90;99.90;;;;;;5075574;28;20444;-69
2021/12/29 04:30:47;;;;;;;18.83;10.80;;;5.90;99.90;;;;;;5076168;28;20499;-69
2021/12/29 04:33:14;;;;;;;18.40;11.77;;;5.90;99.90;;;;;;5076490;28;20794;-69
2021/12/29 04:35:42;;;;;;;14.73;10.30;;;5.90;99.90;;;;;;5077276;28;20458;-69
2021/12/29 04:38:09;;;;;;;17.97;11.50;;;6.00;99.90;;;;;;5076426;28;20861;-69
2021/12/29 04:40:36;;;;;;;16.50;12.13;;;6.00;99.90;;;;;;5076149;28;20458;-69
2021/12/29 04:43:03;;;;;;;16.60;10.30;;;6.00;99.90;;;;;;5075950;28;20830;-69
2021/12/29 04:45:30;;;;;;;16.53;10.63;;;6.00;99.90;;;;;;5075997;28;20458;-69
2021/12/29 04:48:00;;;;;;;17.70;11.97;;;6.00;99.90;;;;;;5075878;28;20583;-69
2021/12/29 04:50:29;;;;;;;19.13;11.60;;;6.00;99.90;;;;;;5075444;28;20464;-69
2021/12/29 04:52:59;;;;;;;20.10;10.70;;;6.00;99.90;;;;;;5075895;28;20458;-69
2021/12/29 04:55:26;;;;;;;16.60;9.70;;;6.00;99.90;;;;;;5075833;28;20466;-69
2021/12/29 04:57:53;;;;;;;14.87;10.50;;;6.00;99.90;;;;;;5075736;28;20531;-69
2021/12/29 05:00:23;;;;;;;16.60;11.70;;;6.00;99.90;;;;;;5076025;28;20481;-69
2021/12/29 05:02:50;;;;;;;17.57;11.10;;;6.00;99.90;;;;;;5075649;28;20484;-69
2021/12/29 05:05:23;;;;;;;15.60;11.60;;;6.00;99.90;;;;;;5075541;28;20471;-69
2021/12/29 05:10:36;;;;;;;17.77;11.50;;;6.10;99.90;;;;;;5075470;28;20425;-69
2021/12/29 05:13:03;;;;;;;16.03;11.80;;;6.10;99.90;;;;;;5075391;28;20454;-69
2021/12/29 05:15:30;;;;;;;15.63;11.30;;;6.00;99.90;;;;;;5075319;28;20454;-69
2021/12/29 05:17:58;;;;;;;15.50;10.57;;;6.00;99.90;;;;;;5074986;28;20482;-69
2021/12/29 05:20:29;;;;;;;19.03;10.40;;;5.90;99.90;;;;;;5075173;28;20458;-69
2021/12/29 05:22:57;;;;;;;13.87;10.10;;;5.90;99.90;;;;;;5074737;28;20462;-69
2021/12/29 05:25:25;;;;;;;15.33;10.57;;;5.90;99.90;;;;;;5074778;28;20918;-69
2021/12/29 05:27:53;;;;;;;15.00;9.80;;;5.80;99.90;;;;;;5074637;28;20478;-69
2021/12/29 05:30:20;;;;;;;12.93;9.97;;;5.80;99.90;;;;;;5074835;28;20458;-69
2021/12/29 05:32:48;;;;;;;14.60;10.30;;;5.90;99.90;;;;;;5074774;28;20915;-69
2021/12/29 05:35:15;;;;;;;15.00;10.70;;;5.90;99.90;;;;;;5075045;28;20458;-69
2021/12/29 05:37:43;;;;;;;15.00;10.37;;;5.90;99.90;;;;;;5074668;28;20482;-68
2021/12/29 05:40:11;;;;;;;18.93;11.23;;;6.00;99.90;;;;;;5074783;28;20458;-68
2021/12/29 05:42:38;;;;;;;14.50;10.10;;;5.90;99.90;;;;;;5074651;28;20458;-69
2021/12/29 05:45:08;;;;;;;14.53;10.17;;;5.90;99.90;;;;;;5074943;28;20785;-68
2021/12/29 05:47:35;;;;;;;14.53;10.77;;;5.90;99.90;;;;;;5074934;28;20458;-68
2021/12/29 05:50:05;;;;;;;18.93;10.50;;;5.90;99.90;;;;;;5074762;28;20454;-68
2021/12/29 05:52:32;;;;;;;13.93;10.40;;;5.90;99.90;;;;;;5075816;28;20531;-70
2021/12/29 05:54:59;;;;;;;16.03;10.17;;;5.90;99.90;;;;;;5075009;28;20481;-69
2021/12/29 05:57:26;;;;;;;16.60;11.63;;;5.90;99.90;;;;;;5074591;28;20954;-69
2021/12/29 05:59:52;;;;;;;16.63;10.90;;;5.80;99.90;;;;;;5076938;28;20458;-69
2021/12/29 06:02:20;;;;;;;18.00;10.63;;;5.80;99.90;;;;;;5077030;28;20462;-69
2021/12/29 06:04:47;;;;;;;17.33;10.77;;;5.90;99.90;;;;;;5074704;28;20516;-69
2021/12/29 06:07:14;;;;;;;12.60;9.67;;;5.90;99.90;;;;;;5075135;28;20462;-69
2021/12/29 06:09:43;;;;;;;16.50;10.60;;;5.90;99.90;;;;;;5075150;28;20951;-68
2021/12/29 06:12:10;;;;;;;14.83;9.73;;;5.90;99.90;;;;;;5074955;28;20790;-69
2021/12/29 06:14:37;;;;;;;14.27;9.63;;;5.90;99.90;;;;;;5074564;28;20515;-69
2021/12/29 06:17:04;;;;;;;14.20;10.47;;;5.90;99.90;;;;;;5075045;28;20523;-69
2021/12/29 06:19:33;;;;;;;22.13;11.37;;;5.90;99.90;;;;;;5074787;28;20473;-69
2021/12/29 06:22:00;;;;;;;22.60;12.00;;;5.90;99.90;;;;;;5074566;28;20656;-69
2021/12/29 06:24:27;;;;;;;26.77;11.90;;;5.90;99.90;;;;;;5074407;28;20473;-69
2021/12/29 06:26:54;;;;;;;17.20;11.13;;;5.90;99.90;;;;;;5074232;28;20536;-69
2021/12/29 06:29:20;;;;;;;18.23;12.23;;;5.90;99.90;;;;;;5074592;28;20504;-69
2021/12/29 06:31:48;;;;;;;16.70;11.37;;;5.90;99.90;;;;;;5074093;28;20458;-72
2021/12/29 06:34:14;;;;;;;21.00;13.77;;;6.00;99.90;;;;;;5074668;28;20465;-69
2021/12/29 06:36:42;;;;;;;20.60;11.83;;;6.00;99.90;;;;;;5074453;28;20484;-69
2021/12/29 06:39:10;;;;;;;22.07;12.67;;;6.00;99.90;;;;;;5074568;28;20543;-69
2021/12/29 06:41:36;;;;;;;21.40;11.93;;;6.00;99.90;;;;;;5074406;28;20751;-69
2021/12/29 06:44:04;;;;;;;22.93;12.50;;;6.00;99.90;;;;;;5074436;28;20469;-69
2021/12/29 06:46:30;;;;;;;19.03;12.70;;;6.10;99.90;;;;;;5074341;28;20458;-69
2021/12/29 06:48:57;;;;;;;19.23;12.33;;;6.10;99.90;;;;;;5074653;28;20533;-69
2021/12/29 06:51:24;;;;;;;28.20;13.27;;;6.10;99.90;;;;;;5075995;28;20458;-69
2021/12/29 06:53:54;;;;;;;25.43;13.97;;;6.10;99.90;;;;;;5077933;28;20472;-69
2021/12/29 06:56:20;;;;;;;27.63;15.20;;;6.10;99.90;;;;;;5078121;28;20795;-69
2021/12/29 06:58:47;;;;;;;30.67;14.70;;;6.10;99.90;;;;;;5078267;28;20894;-69
2021/12/29 07:01:16;;;;;;;21.80;13.63;;;6.10;99.90;;;;;;5078166;28;20469;-69
2021/12/29 07:03:44;;;;;;;24.60;12.47;;;6.10;99.90;;;;;;5077749;28;20937;-69
2021/12/29 07:06:10;;;;;;;23.93;12.47;;;6.10;99.90;;;;;;5078169;28;20458;-69
2021/12/29 07:08:40;;;;;;;19.90;12.80;;;6.10;99.90;;;;;;5078714;28;20450;-69
2021/12/29 07:11:11;;;;;;;22.93;13.13;;;6.10;99.90;;;;;;5078429;28;20790;-69
2021/12/29 07:13:38;;;;;;;23.03;12.90;;;6.00;99.90;;;;;;5078138;28;20458;-69
2021/12/29 07:16:07;;;;;;;23.30;11.77;;;6.10;99.90;;;;;;5078272;28;20531;-69
2021/12/29 07:18:34;;;;;;;19.97;11.80;;;6.00;99.90;;;;;;5078123;28;20973;-69
2021/12/29 07:21:01;;;;;;;23.83;12.57;;;6.00;99.90;;;;;;5077571;28;20468;-69
2021/12/29 07:23:27;;;;;;;18.63;12.73;;;6.00;99.90;;;;;;5077363;28;20473;-69
2021/12/29 07:25:54;;;;;;;21.93;11.87;;;6.00;99.90;;;;;;5077374;28;20458;-69
2021/12/29 07:28:24;;;;;;;20.03;12.13;;;6.00;99.90;;;;;;5077486;28;20763;-69
2021/12/29 07:30:51;;;;;;;19.10;11.50;;;6.00;99.90;;;;;;5077295;28;20527;-69
2021/12/29 07:33:17;;;;;;;20.70;13.10;;;5.90;99.90;;;;;;5077370;28;20791;-69
2021/12/29 07:35:44;;;;;;;24.10;13.10;;;5.80;99.90;;;;;;5077268;28;20517;-69
2021/12/29 07:38:11;;;;;;;24.47;14.27;;;5.80;99.90;;;;;;5076874;28;20968;-69
2021/12/29 07:40:37;;;;;;;24.00;12.87;;;5.70;99.90;;;;;;5077388;28;20801;-68
2021/12/29 07:43:04;;;;;;;25.10;14.53;;;5.60;99.90;;;;;;5077217;28;20821;-68
2021/12/29 07:45:32;;;;;;;25.00;13.47;;;5.60;99.90;;;;;;5077145;28;20462;-67
2021/12/29 07:48:00;;;;;;;25.10;12.90;;;5.60;99.90;;;;;;5077193;28;20544;-68
2021/12/29 07:50:27;;;;;;;29.77;14.03;;;5.60;99.90;;;;;;5076875;28;20458;-68
2021/12/29 07:52:53;;;;;;;31.10;14.20;;;5.60;99.90;;;;;;5076844;28;20454;-68
2021/12/29 07:55:21;;;;;;;26.97;14.17;;;5.50;99.90;;;;;;5076431;28;20465;-69
2021/12/29 07:57:49;;;;;;;22.57;12.10;;;5.50;99.90;;;;;;5076787;28;20457;-68
2021/12/29 08:00:21;;;;;;;27.43;14.80;;;5.60;99.90;;;;;;5076990;28;20454;-68
2021/12/29 08:02:50;;;;;;;27.03;15.40;;;5.60;99.90;;;;;;5075627;28;20572;-68
2021/12/29 08:05:18;;;;;;;30.73;15.40;;;5.60;99.90;;;;;;5077074;28;20462;-68
2021/12/29 08:07:45;;;;;;;31.10;15.20;;;5.60;99.90;;;;;;5076747;28;20458;-68
2021/12/29 08:10:11;;;;;;;27.73;14.13;;;5.60;99.90;;;;;;5076489;28;20458;-69
2021/12/29 08:12:38;;;;;;;27.20;15.50;;;5.60;99.90;;;;;;5076650;28;20483;-69
2021/12/29 08:15:06;;;;;;;26.00;14.40;;;5.60;99.90;;;;;;5076352;28;20454;-69
2021/12/29 08:17:33;;;;;;;29.43;12.33;;;5.70;99.90;;;;;;5076638;28;20462;-69
2021/12/29 08:20:02;;;;;;;20.30;12.43;;;5.70;99.90;;;;;;5076342;28;20501;-69
2021/12/29 08:22:28;;;;;;;24.50;14.80;;;5.80;99.90;;;;;;5076470;28;20462;-69
2021/12/29 08:24:58;;;;;;;23.47;13.07;;;5.80;99.90;;;;;;5076240;28;20784;-69
2021/12/29 08:27:25;;;;;;;29.23;13.10;;;5.90;99.90;;;;;;5076259;28;20486;-69
2021/12/29 08:29:51;;;;;;;20.13;11.73;;;5.90;99.90;;;;;;5076351;28;20454;-69
2021/12/29 08:32:20;;;;;;;27.13;11.80;;;5.90;99.90;;;;;;5076187;28;20462;-68
2021/12/29 08:34:47;;;;;;;25.23;13.63;;;5.90;99.90;;;;;;5075845;28;20454;-69
2021/12/29 08:37:15;;;;;;;24.60;14.03;;;5.90;99.90;;;;;;5075862;28;20466;-69
2021/12/29 08:39:41;;;;;;;26.50;14.87;;;5.90;99.90;;;;;;5075847;28;20477;-69
2021/12/29 08:42:08;;;;;;;27.20;14.00;;;6.00;99.90;;;;;;5075984;28;20469;-69
2021/12/29 08:44:35;;;;;;;28.63;13.57;;;5.90;99.90;;;;;;5075888;28;20465;-68
2021/12/29 08:47:02;;;;;;;36.60;15.50;;;6.00;99.90;;;;;;5076102;28;20910;-68
2021/12/29 08:49:28;;;;;;;27.80;14.67;;;6.00;99.90;;;;;;5075975;28;20458;-68
2021/12/29 08:51:56;;;;;;;21.57;14.97;;;6.10;99.90;;;;;;5075999;28;20458;-69
2021/12/29 08:54:26;;;;;;;26.87;16.20;;;6.10;99.90;;;;;;5075799;28;20553;-69
2021/12/29 08:56:54;;;;;;;23.60;15.07;;;6.10;99.90;;;;;;5075492;28;20465;-69
2021/12/29 08:59:21;;;;;;;27.83;15.90;;;6.20;99.90;;;;;;5075812;28;20482;-69
2021/12/29 09:01:49;;;;;;;28.80;16.40;;;6.20;99.90;;;;;;5075626;28;20469;-68
2021/12/29 09:04:15;;;;;;;27.93;16.97;;;6.20;99.90;;;;;;5075575;28;20451;-69
2021/12/29 09:06:42;;;;;;;29.87;19.23;;;6.30;99.90;;;;;;5075090;28;20903;-68
2021/12/29 09:09:09;;;;;;;27.00;14.60;;;6.30;99.90;;;;;;5075461;28;20450;-69
2021/12/29 09:11:37;;;;;;;27.73;17.10;;;6.30;99.90;;;;;;5075601;28;20469;-69
2021/12/29 09:14:04;;;;;;;31.10;16.70;;;6.40;99.90;;;;;;5075166;28;20454;-69
2021/12/29 09:16:31;;;;;;;30.17;19.30;;;6.40;99.90;;;;;;5075481;28;20512;-70
2021/12/29 09:18:58;;;;;;;32.03;18.67;;;6.40;99.90;;;;;;5075456;28;20842;-67
2021/12/29 09:21:27;;;;;;;28.20;18.03;;;6.50;99.90;;;;;;5075014;28;20458;-68
2021/12/29 09:23:54;;;;;;;27.30;17.40;;;6.60;99.90;;;;;;5075298;28;20465;-68
2021/12/29 09:26:21;;;;;;;26.80;17.20;;;6.60;99.90;;;;;;5074875;28;20478;-69
2021/12/29 09:28:50;;;;;;;27.57;17.30;;;6.60;99.90;;;;;;5074931;28;20838;-69
2021/12/29 09:31:20;;;;;;;25.87;17.57;;;6.60;99.90;;;;;;5074959;28;20829;-69
2021/12/29 09:33:47;;;;;;;22.77;15.97;;;6.60;99.90;;;;;;5074902;28;20478;-68
2021/12/29 09:36:15;;;;;;;30.90;17.20;;;6.70;99.90;;;;;;5075576;28;20784;-69
2021/12/29 09:38:46;;;;;;;28.00;15.33;;;6.70;99.90;;;;;;5075188;28;20482;-69
2021/12/29 09:41:15;;;;;;;27.93;16.40;;;6.80;99.90;;;;;;5075676;28;20465;-70
2021/12/29 09:43:44;;;;;;;26.60;17.23;;;6.80;99.90;;;;;;5075138;28;20454;-70
2021/12/29 09:46:13;;;;;;;32.47;18.20;;;6.80;99.90;;;;;;5075032;28;20454;-69
2021/12/29 09:48:40;;;;;;;28.30;18.47;;;6.90;99.90;;;;;;5074899;28;20450;-69
2021/12/29 09:51:11;;;;;;;24.33;15.20;;;6.90;99.90;;;;;;5074827;28;20458;-70
2021/12/29 09:53:39;;;;;;;27.73;17.60;;;6.90;99.90;;;;;;5075149;28;20450;-69
2021/12/29 09:56:06;;;;;;;24.60;14.90;;;6.90;99.90;;;;;;5074876;28;20462;-69
2021/12/29 09:58:33;;;;;;;28.13;15.10;;;7.00;99.90;;;;;;5074734;28;20470;-69
2021/12/29 10:01:04;;;;;;;24.40;15.47;;;6.90;99.90;;;;;;5074908;28;20524;-69
2021/12/29 10:03:33;;;;;;;17.60;13.20;;;7.00;99.90;;;;;;5074964;28;20525;-69
2021/12/29 10:06:02;;;;;;;25.37;14.30;;;7.00;99.90;;;;;;5075072;28;20454;-69
2021/12/29 10:08:31;;;;;;;18.40;12.20;;;7.00;99.90;;;;;;5074645;28;20454;-70
2021/12/29 10:11:03;;;;;;;20.33;12.90;;;7.00;99.90;;;;;;5074797;28;20455;-70
2021/12/29 10:13:30;;;;;;;19.63;12.67;;;7.00;99.90;;;;;;5075157;28;20453;-70
2021/12/29 10:16:02;;;;;;;24.13;12.93;;;6.90;99.90;;;;;;5075114;28;20489;-70
2021/12/29 10:18:30;;;;;;;23.80;14.23;;;6.90;99.90;;;;;;5074742;28;20438;-69
2021/12/29 10:21:01;;;;;;;24.23;12.90;;;6.90;99.90;;;;;;5074422;28;20462;-69
2021/12/29 10:23:29;;;;;;;22.90;13.60;;;7.00;99.90;;;;;;5073891;28;20985;-69
2021/12/29 10:26:00;;;;;;;26.47;14.10;;;7.00;99.90;;;;;;5075329;28;20465;-68
2021/12/29 10:28:29;;;;;;;23.23;15.83;;;7.00;99.90;;;;;;5078573;28;20452;-71
2021/12/29 10:31:00;;;;;;;26.00;15.37;;;7.00;99.90;;;;;;5078652;28;20464;-69
2021/12/29 10:33:40;;;;;;;28.97;17.77;;;7.00;99.90;;;;;;5078696;28;20753;-69
2021/12/29 10:36:21;;;;;;;24.40;16.37;;;7.00;99.90;;;;;;5078548;28;20446;-69
2021/12/29 10:38:51;;;;;;;24.37;16.87;;;7.00;99.90;;;;;;5078227;28;20470;-69
2021/12/29 10:41:21;;;;;;;32.30;17.77;;;7.00;99.90;;;;;;5078380;28;20470;-69
2021/12/29 10:43:54;;;;;;;33.17;16.80;;;7.00;99.90;;;;;;5078187;28;20839;-69
2021/12/29 10:46:22;;;;;;;31.27;16.80;;;7.00;99.90;;;;;;5078132;28;20443;-69
2021/12/29 10:48:51;;;;;;;27.13;17.37;;;7.00;99.90;;;;;;5078187;28;20819;-69
2021/12/29 10:51:25;;;;;;;31.40;18.23;;;7.00;99.90;;;;;;5077717;28;20450;-69
2021/12/29 10:54:02;;;;;;;32.07;20.13;;;7.00;99.90;;;;;;5078091;28;20830;-69
2021/12/29 10:56:29;;;;;;;29.17;18.73;;;7.00;99.90;;;;;;5077994;28;20438;-69
2021/12/29 10:58:56;;;;;;;32.23;19.57;;;7.00;99.90;;;;;;5078104;28;20478;-69
2021/12/29 11:01:24;;;;;;;33.10;20.30;;;7.00;99.90;;;;;;5078168;28;20465;-70
2021/12/29 11:03:53;;;;;;;33.70;21.00;;;6.90;99.90;;;;;;5078086;28;20515;-69
2021/12/29 11:06:24;;;;;;;32.30;18.83;;;6.90;99.90;;;;;;5077267;28;20784;-70
2021/12/29 11:08:52;;;;;;;35.10;19.23;;;6.90;99.90;;;;;;5078032;28;20453;-69
2021/12/29 11:11:21;;;;;;;35.70;19.67;;;6.90;99.90;;;;;;5077431;28;20472;-69
2021/12/29 11:13:48;;;;;;;32.10;21.50;;;6.90;99.90;;;;;;5077425;28;20777;-69
2021/12/29 11:16:14;;;;;;;36.43;20.77;;;6.90;99.90;;;;;;5077336;28;20454;-69
2021/12/29 11:18:48;;;;;;;38.23;21.90;;;6.90;99.90;;;;;;5077242;28;20450;-69
2021/12/29 11:21:23;;;;;;;45.97;21.90;;;6.90;99.90;;;;;;5077651;28;20525;-69
2021/12/29 11:23:51;;;;;;;41.90;21.40;;;6.80;99.90;;;;;;5077449;28;20438;-69
2021/12/29 11:26:28;;;;;;;32.40;20.27;;;6.80;99.90;;;;;;5076953;28;20478;-69
2021/12/29 11:29:02;;;;;;;35.20;20.00;;;6.90;99.90;;;;;;5077311;28;20503;-69
2021/12/29 11:31:34;;;;;;;38.17;18.40;;;6.90;99.90;;;;;;5078102;28;20816;-69
2021/12/29 11:34:16;;;;;;;32.03;16.90;;;6.90;99.90;;;;;;5081646;28;20445;-69
2021/12/29 11:36:44;;;;;;;36.43;16.63;;;6.90;99.90;;;;;;5080854;28;20438;-71
2021/12/29 11:39:13;;;;;;;31.00;16.97;;;7.00;99.90;;;;;;5080022;28;20783;-69
2021/12/29 11:41:42;;;;;;;28.43;16.77;;;7.00;99.90;;;;;;5080895;28;20450;-70
2021/12/29 11:44:09;;;;;;;27.00;15.37;;;7.00;99.90;;;;;;5077747;28;20555;-69
2021/12/29 11:46:37;;;;;;;28.67;16.90;;;7.10;99.90;;;;;;5077043;28;20597;-70
2021/12/29 11:49:06;;;;;;;30.23;17.07;;;7.10;99.90;;;;;;5076588;28;20450;-70
2021/12/29 11:51:41;;;;;;;28.30;16.50;;;7.10;99.90;;;;;;5076720;28;20494;-69
2021/12/29 11:54:15;;;;;;;35.40;20.10;;;7.00;99.90;;;;;;5077281;28;20533;-70
2021/12/29 11:56:43;;;;;;;34.70;20.60;;;7.00;99.90;;;;;;5077263;28;20500;-69
2021/12/29 11:59:10;;;;;;;38.23;20.80;;;7.00;99.90;;;;;;5077331;28;20564;-70
2021/12/29 12:01:38;;;;;;;34.43;20.43;;;7.00;99.90;;;;;;5077179;28;20462;-70
2021/12/29 12:04:07;;;;;;;38.40;21.73;;;7.00;99.90;;;;;;5077146;28;20545;-69
2021/12/29 12:06:36;;;;;;;37.30;22.13;;;6.90;99.90;;;;;;5076852;28;20541;-70
2021/12/29 12:09:10;;;;;;;39.90;21.40;;;6.90;99.90;;;;;;5077486;28;20545;-70
2021/12/29 12:11:41;;;;;;;45.57;26.20;;;6.90;99.90;;;;;;5077958;28;20831;-69
2021/12/29 12:14:19;;;;;;;36.50;22.30;;;6.90;99.90;;;;;;5077160;28;20879;-70
2021/12/29 12:16:55;;;;;;;42.70;21.53;;;6.90;99.90;;;;;;5076898;28;20442;-69
2021/12/29 12:19:27;;;;;;;41.67;22.20;;;6.90;99.90;;;;;;5076630;28;20466;-69
2021/12/29 12:22:06;;;;;;;42.03;23.30;;;6.90;99.90;;;;;;5078128;28;20507;-69
2021/12/29 12:24:34;;;;;;;41.23;21.87;;;6.90;99.90;;;;;;5080631;28;20517;-69
2021/12/29 12:27:06;;;;;;;37.70;22.00;;;6.90;99.90;;;;;;5077672;28;20494;-69
2021/12/29 12:29:35;;;;;;;48.37;24.20;;;6.90;99.90;;;;;;5077000;28;20446;-69
2021/12/29 12:32:13;;;;;;;36.70;21.13;;;7.00;99.90;;;;;;5077338;28;20496;-69
2021/12/29 12:34:55;;;;;;;36.07;20.17;;;6.90;99.90;;;;;;5076791;28;20529;-69
2021/12/29 12:37:24;;;;;;;38.13;21.10;;;7.00;99.90;;;;;;5077097;28;20439;-69
2021/12/29 12:39:56;;;;;;;32.30;20.37;;;6.90;99.90;;;;;;5077226;28;20482;-70
2021/12/29 12:42:25;;;;;;;35.33;20.03;;;6.90;99.90;;;;;;5076004;28;20454;-69
2021/12/29 12:44:52;;;;;;;37.13;20.40;;;6.90;99.90;;;;;;5075532;28;20458;-69
2021/12/29 12:47:19;;;;;;;29.27;16.97;;;6.90;99.90;;;;;;5076048;28;20454;-70
2021/12/29 12:49:50;;;;;;;41.73;19.67;;;6.80;99.90;;;;;;5075180;28;20454;-70